sensor_id;sensor_type;location;lat;lon;timestamp;temperature;humidity
23120;DHT22;11729;50.836;4.330;2022-10-31T00:00:07;16.20;99.90
23120;DHT22;11729;50.836;4.330;2022-10-31T00:02:33;16.20;99.90
23120;DHT22;11729;50.836;4.330;2022-10-31T00:04:59;16.30;99.90
23120;DHT22;11729;50.836;4.330;2022-10-31T00:07:24;16.20;99.90
23120;DHT22;11729;50.836;4.330;2022-10-31T00:09:50;16.20;99.90
23120;DHT22;11729;50.836;4.330;2022-10-31T00:12:15;16.30;99.90
23120;DHT22;11729;50.836;4.330;2022-10-31T00:14:41;16.30;99.90
23120;DHT22;11729;50.836;4.330;2022-10-31T00:17:06;16.30;99.90
23120;DHT22;11729;50.836;4.330;2022-10-31T00:19:32;16.30;99.90
23120;DHT22;11729;50.836;4.330;2022-10-31T00:21:58;16.20;99.90
23120;DHT22;11729;50.836;4.330;2022-10-31T00:24:23;16.20;99.90
23120;DHT22;11729;50.836;4.330;2022-10-31T00:26:49;16.20;99.90
23120;DHT22;11729;50.836;4.330;2022-10-31T00:29:14;16.20;99.90
23120;DHT22;11729;50.836;4.330;2022-10-31T00:31:40;16.10;99.90
23120;DHT22;11729;50.836;4.330;2022-10-31T00:34:05;16.00;99.90
23120;DHT22;11729;50.836;4.330;2022-10-31T00:36:31;16.00;99.90
23120;DHT22;11729;50.836;4.330;2022-10-31T00:38:58;15.90;99.90
23120;DHT22;11729;50.836;4.330;2022-10-31T00:41:23;15.90;99.90
23120;DHT22;11729;50.836;4.330;2022-10-31T00:43:49;15.80;99.90
23120;DHT22;11729;50.836;4.330;2022-10-31T00:46:15;15.80;99.90
23120;DHT22;11729;50.836;4.330;2022-10-31T00:48:41;15.70;99.90
23120;DHT22;11729;50.836;4.330;2022-10-31T00:51:07;15.70;99.90
23120;DHT22;11729;50.836;4.330;2022-10-31T00:53:33;15.60;99.90
23120;DHT22;11729;50.836;4.330;2022-10-31T00:55:59;15.50;99.90
23120;DHT22;11729;50.836;4.330;2022-10-31T00:58:24;15.50;99.90
23120;DHT22;11729;50.836;4.330;2022-10-31T01:00:50;15.40;99.90
23120;DHT22;11729;50.836;4.330;2022-10-31T01:03:21;15.40;99.90
23120;DHT22;11729;50.836;4.330;2022-10-31T01:06:05;15.40;99.90
23120;DHT22;11729;50.836;4.330;2022-10-31T01:08:31;15.30;99.90
23120;DHT22;11729;50.836;4.330;2022-10-31T01:13:31;15.30;99.90
23120;DHT22;11729;50.836;4.330;2022-10-31T01:15:58;15.20;99.90
23120;DHT22;11729;50.836;4.330;2022-10-31T01:18:24;15.20;99.90
23120;DHT22;11729;50.836;4.330;2022-10-31T01:21:05;15.20;99.90
23120;DHT22;11729;50.836;4.330;2022-10-31T01:23:31;15.20;99.90
23120;DHT22;11729;50.836;4.330;2022-10-31T01:26:13;15.20;99.90
23120;DHT22;11729;50.836;4.330;2022-10-31T01:28:44;15.10;99.90
23120;DHT22;11729;50.836;4.330;2022-10-31T01:31:10;15.10;99.90
23120;DHT22;11729;50.836;4.330;2022-10-31T01:33:36;15.10;99.90
23120;DHT22;11729;50.836;4.330;2022-10-31T01:36:22;15.10;99.90
23120;DHT22;11729;50.836;4.330;2022-10-31T01:38:48;15.00;99.90
23120;DHT22;11729;50.836;4.330;2022-10-31T01:41:17;15.00;99.90
23120;DHT22;11729;50.836;4.330;2022-10-31T01:43:44;15.00;99.90
23120;DHT22;11729;50.836;4.330;2022-10-31T01:46:10;14.90;99.90
23120;DHT22;11729;50.836;4.330;2022-10-31T01:48:36;14.90;99.90
23120;DHT22;11729;50.836;4.330;2022-10-31T01:51:02;14.90;99.90
23120;DHT22;11729;50.836;4.330;2022-10-31T01:53:30;14.90;99.90
23120;DHT22;11729;50.836;4.330;2022-10-31T01:55:57;14.90;99.90
23120;DHT22;11729;50.836;4.330;2022-10-31T01:58:25;14.80;99.90
23120;DHT22;11729;50.836;4.330;2022-10-31T02:00:57;14.70;99.90
23120;DHT22;11729;50.836;4.330;2022-10-31T02:03:25;14.70;99.90
23120;DHT22;11729;50.836;4.330;2022-10-31T02:05:53;14.70;99.90
23120;DHT22;11729;50.836;4.330;2022-10-31T02:08:30;14.60;99.90
23120;DHT22;11729;50.836;4.330;2022-10-31T02:10:58;14.60;99.90
23120;DHT22;11729;50.836;4.330;2022-10-31T02:13:25;14.60;99.90
23120;DHT22;11729;50.836;4.330;2022-10-31T02:15:56;14.50;99.90
23120;DHT22;11729;50.836;4.330;2022-10-31T02:18:23;14.50;99.90
23120;DHT22;11729;50.836;4.330;2022-10-31T02:39:48;14.40;99.90
23120;DHT22;11729;50.836;4.330;2022-10-31T02:42:32;14.50;99.90
23120;DHT22;11729;50.836;4.330;2022-10-31T02:46:23;14.40;99.90
23120;DHT22;11729;50.836;4.330;2022-10-31T02:48:19;14.50;99.90
23120;DHT22;11729;50.836;4.330;2022-10-31T02:50:52;14.40;99.90
23120;DHT22;11729;50.836;4.330;2022-10-31T02:53:19;14.40;99.90
23120;DHT22;11729;50.836;4.330;2022-10-31T02:58:21;14.20;99.90
23120;DHT22;11729;50.836;4.330;2022-10-31T03:06:35;14.10;99.90
23120;DHT22;11729;50.836;4.330;2022-10-31T03:09:36;14.20;99.90
23120;DHT22;11729;50.836;4.330;2022-10-31T03:12:07;14.10;99.90
23120;DHT22;11729;50.836;4.330;2022-10-31T03:14:54;14.10;99.90
23120;DHT22;11729;50.836;4.330;2022-10-31T03:17:43;14.10;99.90
23120;DHT22;11729;50.836;4.330;2022-10-31T03:20:13;14.10;99.90
23120;DHT22;11729;50.836;4.330;2022-10-31T03:22:40;14.10;99.90
23120;DHT22;11729;50.836;4.330;2022-10-31T03:25:09;14.10;99.90
23120;DHT22;11729;50.836;4.330;2022-10-31T03:27:36;14.00;99.90
23120;DHT22;11729;50.836;4.330;2022-10-31T03:30:05;14.00;99.90
23120;DHT22;11729;50.836;4.330;2022-10-31T03:32:43;13.90;99.90
23120;DHT22;11729;50.836;4.330;2022-10-31T03:35:10;14.00;99.90
23120;DHT22;11729;50.836;4.330;2022-10-31T03:37:39;13.90;99.90
23120;DHT22;11729;50.836;4.330;2022-10-31T03:40:07;13.90;99.90
23120;DHT22;11729;50.836;4.330;2022-10-31T03:42:38;13.90;99.90
23120;DHT22;11729;50.836;4.330;2022-10-31T03:45:26;13.90;99.90
23120;DHT22;11729;50.836;4.330;2022-10-31T03:47:53;13.90;99.90
23120;DHT22;11729;50.836;4.330;2022-10-31T03:50:19;13.90;99.90
23120;DHT22;11729;50.836;4.330;2022-10-31T03:53:17;13.90;99.90
23120;DHT22;11729;50.836;4.330;2022-10-31T03:58:44;13.80;99.90
23120;DHT22;11729;50.836;4.330;2022-10-31T04:01:13;13.90;99.90
23120;DHT22;11729;50.836;4.330;2022-10-31T04:03:41;13.90;99.90
23120;DHT22;11729;50.836;4.330;2022-10-31T04:06:10;13.90;99.90
23120;DHT22;11729;50.836;4.330;2022-10-31T04:08:48;13.90;99.90
23120;DHT22;11729;50.836;4.330;2022-10-31T04:11:18;13.80;99.90
23120;DHT22;11729;50.836;4.330;2022-10-31T04:13:46;13.80;99.90
23120;DHT22;11729;50.836;4.330;2022-10-31T04:16:13;13.80;99.90
23120;DHT22;11729;50.836;4.330;2022-10-31T04:18:40;13.80;99.90
23120;DHT22;11729;50.836;4.330;2022-10-31T04:21:07;13.70;99.90
23120;DHT22;11729;50.836;4.330;2022-10-31T04:23:34;13.70;99.90
23120;DHT22;11729;50.836;4.330;2022-10-31T04:26:00;13.70;99.90
23120;DHT22;11729;50.836;4.330;2022-10-31T04:28:26;13.70;99.90
23120;DHT22;11729;50.836;4.330;2022-10-31T04:30:52;13.70;99.90
23120;DHT22;11729;50.836;4.330;2022-10-31T04:33:18;13.70;99.90
23120;DHT22;11729;50.836;4.330;2022-10-31T04:35:44;13.70;99.90
23120;DHT22;11729;50.836;4.330;2022-10-31T04:38:09;13.70;99.90
23120;DHT22;11729;50.836;4.330;2022-10-31T04:40:35;13.60;99.90
23120;DHT22;11729;50.836;4.330;2022-10-31T04:43:00;13.60;99.90
23120;DHT22;11729;50.836;4.330;2022-10-31T04:45:26;13.60;99.90
23120;DHT22;11729;50.836;4.330;2022-10-31T04:47:51;13.70;99.90
23120;DHT22;11729;50.836;4.330;2022-10-31T04:50:17;13.70;99.90
23120;DHT22;11729;50.836;4.330;2022-10-31T04:52:44;13.70;99.90
23120;DHT22;11729;50.836;4.330;2022-10-31T04:55:10;13.70;99.90
23120;DHT22;11729;50.836;4.330;2022-10-31T04:57:44;13.70;99.90
23120;DHT22;11729;50.836;4.330;2022-10-31T05:00:11;13.70;99.90
23120;DHT22;11729;50.836;4.330;2022-10-31T05:02:51;13.70;99.90
23120;DHT22;11729;50.836;4.330;2022-10-31T05:05:19;13.60;99.90
23120;DHT22;11729;50.836;4.330;2022-10-31T05:07:46;13.70;99.90
23120;DHT22;11729;50.836;4.330;2022-10-31T05:10:15;13.70;99.90
23120;DHT22;11729;50.836;4.330;2022-10-31T05:12:58;13.70;99.90
23120;DHT22;11729;50.836;4.330;2022-10-31T05:15:25;13.70;99.90
23120;DHT22;11729;50.836;4.330;2022-10-31T05:17:51;13.70;99.90
23120;DHT22;11729;50.836;4.330;2022-10-31T05:20:19;13.70;99.90
23120;DHT22;11729;50.836;4.330;2022-10-31T05:22:47;13.80;99.90
23120;DHT22;11729;50.836;4.330;2022-10-31T05:25:13;13.90;99.90
23120;DHT22;11729;50.836;4.330;2022-10-31T05:27:44;13.90;99.90
23120;DHT22;11729;50.836;4.330;2022-10-31T05:30:11;13.90;99.90
23120;DHT22;11729;50.836;4.330;2022-10-31T05:32:40;14.00;99.90
23120;DHT22;11729;50.836;4.330;2022-10-31T05:35:10;14.00;99.90
23120;DHT22;11729;50.836;4.330;2022-10-31T05:37:35;13.90;99.90
23120;DHT22;11729;50.836;4.330;2022-10-31T05:40:02;14.00;99.90
23120;DHT22;11729;50.836;4.330;2022-10-31T05:42:28;14.00;99.90
23120;DHT22;11729;50.836;4.330;2022-10-31T05:44:55;14.00;99.90
23120;DHT22;11729;50.836;4.330;2022-10-31T05:47:20;14.40;99.90
23120;DHT22;11729;50.836;4.330;2022-10-31T05:49:46;14.50;99.90
23120;DHT22;11729;50.836;4.330;2022-10-31T05:52:11;14.40;99.90
23120;DHT22;11729;50.836;4.330;2022-10-31T05:54:37;14.40;99.90
23120;DHT22;11729;50.836;4.330;2022-10-31T05:57:03;14.30;99.90
23120;DHT22;11729;50.836;4.330;2022-10-31T05:59:28;14.30;99.90
23120;DHT22;11729;50.836;4.330;2022-10-31T06:01:54;14.20;99.90
23120;DHT22;11729;50.836;4.330;2022-10-31T06:04:19;14.20;99.90
23120;DHT22;11729;50.836;4.330;2022-10-31T06:06:45;14.20;99.90
23120;DHT22;11729;50.836;4.330;2022-10-31T06:09:12;14.30;99.90
23120;DHT22;11729;50.836;4.330;2022-10-31T06:11:37;14.40;99.90
23120;DHT22;11729;50.836;4.330;2022-10-31T06:14:04;14.40;99.90
23120;DHT22;11729;50.836;4.330;2022-10-31T06:16:29;14.50;99.90
23120;DHT22;11729;50.836;4.330;2022-10-31T06:18:55;14.40;99.90
23120;DHT22;11729;50.836;4.330;2022-10-31T06:21:21;14.50;99.90
23120;DHT22;11729;50.836;4.330;2022-10-31T06:23:46;14.50;99.90
23120;DHT22;11729;50.836;4.330;2022-10-31T06:26:12;14.50;99.90
23120;DHT22;11729;50.836;4.330;2022-10-31T06:28:38;14.50;99.90
23120;DHT22;11729;50.836;4.330;2022-10-31T06:31:03;14.50;99.90
23120;DHT22;11729;50.836;4.330;2022-10-31T06:33:29;14.50;99.90
23120;DHT22;11729;50.836;4.330;2022-10-31T06:35:54;14.50;99.90
23120;DHT22;11729;50.836;4.330;2022-10-31T06:38:20;14.60;99.90
23120;DHT22;11729;50.836;4.330;2022-10-31T06:40:46;14.70;99.90
23120;DHT22;11729;50.836;4.330;2022-10-31T06:43:11;14.70;99.90
23120;DHT22;11729;50.836;4.330;2022-10-31T06:45:37;14.70;99.90
23120;DHT22;11729;50.836;4.330;2022-10-31T06:48:03;14.60;99.90
23120;DHT22;11729;50.836;4.330;2022-10-31T06:50:29;14.60;99.90
23120;DHT22;11729;50.836;4.330;2022-10-31T06:52:56;14.70;99.90
23120;DHT22;11729;50.836;4.330;2022-10-31T06:55:23;14.70;99.90
23120;DHT22;11729;50.836;4.330;2022-10-31T06:57:56;14.70;99.90
23120;DHT22;11729;50.836;4.330;2022-10-31T07:00:22;14.80;99.90
23120;DHT22;11729;50.836;4.330;2022-10-31T07:05:24;14.90;99.90
23120;DHT22;11729;50.836;4.330;2022-10-31T07:07:54;14.90;99.90
23120;DHT22;11729;50.836;4.330;2022-10-31T07:10:20;15.00;99.90
23120;DHT22;11729;50.836;4.330;2022-10-31T07:12:46;15.10;99.90
23120;DHT22;11729;50.836;4.330;2022-10-31T07:15:12;15.00;99.90
23120;DHT22;11729;50.836;4.330;2022-10-31T07:17:37;15.00;99.90
23120;DHT22;11729;50.836;4.330;2022-10-31T07:20:03;15.00;99.90
23120;DHT22;11729;50.836;4.330;2022-10-31T07:22:33;15.10;99.90
23120;DHT22;11729;50.836;4.330;2022-10-31T07:24:59;15.20;99.90
23120;DHT22;11729;50.836;4.330;2022-10-31T07:27:24;15.20;99.90
23120;DHT22;11729;50.836;4.330;2022-10-31T07:29:50;15.30;99.90
23120;DHT22;11729;50.836;4.330;2022-10-31T07:32:16;15.40;99.90
23120;DHT22;11729;50.836;4.330;2022-10-31T07:34:41;15.50;99.90
23120;DHT22;11729;50.836;4.330;2022-10-31T07:37:07;15.50;99.90
23120;DHT22;11729;50.836;4.330;2022-10-31T07:39:32;15.60;99.90
23120;DHT22;11729;50.836;4.330;2022-10-31T07:41:59;15.60;99.90
23120;DHT22;11729;50.836;4.330;2022-10-31T07:44:24;15.60;99.90
23120;DHT22;11729;50.836;4.330;2022-10-31T07:46:50;15.50;99.90
23120;DHT22;11729;50.836;4.330;2022-10-31T07:49:16;15.60;99.90
23120;DHT22;11729;50.836;4.330;2022-10-31T07:51:41;15.50;99.90
23120;DHT22;11729;50.836;4.330;2022-10-31T07:54:07;15.60;99.90
23120;DHT22;11729;50.836;4.330;2022-10-31T07:56:32;15.40;99.90
23120;DHT22;11729;50.836;4.330;2022-10-31T07:58:58;15.50;99.90
23120;DHT22;11729;50.836;4.330;2022-10-31T08:01:23;15.70;99.90
23120;DHT22;11729;50.836;4.330;2022-10-31T08:03:49;15.80;99.90
23120;DHT22;11729;50.836;4.330;2022-10-31T08:06:14;15.90;99.90
23120;DHT22;11729;50.836;4.330;2022-10-31T08:08:40;16.00;99.90
23120;DHT22;11729;50.836;4.330;2022-10-31T08:11:06;16.10;99.90
23120;DHT22;11729;50.836;4.330;2022-10-31T08:13:31;16.10;99.90
23120;DHT22;11729;50.836;4.330;2022-10-31T08:15:57;16.20;99.90
23120;DHT22;11729;50.836;4.330;2022-10-31T08:18:28;16.30;99.90
23120;DHT22;11729;50.836;4.330;2022-10-31T08:20:54;16.40;99.90
23120;DHT22;11729;50.836;4.330;2022-10-31T08:23:20;16.50;99.90
23120;DHT22;11729;50.836;4.330;2022-10-31T08:25:46;16.70;99.90
23120;DHT22;11729;50.836;4.330;2022-10-31T08:28:13;16.40;99.90
23120;DHT22;11729;50.836;4.330;2022-10-31T08:30:39;16.40;99.90
23120;DHT22;11729;50.836;4.330;2022-10-31T08:35:34;16.20;99.90
23120;DHT22;11729;50.836;4.330;2022-10-31T08:38:00;16.30;99.90
23120;DHT22;11729;50.836;4.330;2022-10-31T08:40:27;16.20;99.90
23120;DHT22;11729;50.836;4.330;2022-10-31T08:43:03;16.30;99.90
23120;DHT22;11729;50.836;4.330;2022-10-31T08:45:30;16.40;99.90
23120;DHT22;11729;50.836;4.330;2022-10-31T08:48:02;16.60;99.90
23120;DHT22;11729;50.836;4.330;2022-10-31T08:50:29;16.70;99.90
23120;DHT22;11729;50.836;4.330;2022-10-31T08:53:24;16.70;99.90
23120;DHT22;11729;50.836;4.330;2022-10-31T08:55:50;16.90;99.90
23120;DHT22;11729;50.836;4.330;2022-10-31T08:58:19;16.80;99.90
23120;DHT22;11729;50.836;4.330;2022-10-31T09:00:46;16.80;99.90
23120;DHT22;11729;50.836;4.330;2022-10-31T09:03:15;16.70;99.90
23120;DHT22;11729;50.836;4.330;2022-10-31T09:05:41;16.50;99.90
23120;DHT22;11729;50.836;4.330;2022-10-31T09:08:07;16.80;99.90
23120;DHT22;11729;50.836;4.330;2022-10-31T09:10:34;16.80;99.90
23120;DHT22;11729;50.836;4.330;2022-10-31T09:13:03;16.70;99.90
23120;DHT22;11729;50.836;4.330;2022-10-31T09:15:33;16.80;99.90
23120;DHT22;11729;50.836;4.330;2022-10-31T09:17:59;17.00;99.90
23120;DHT22;11729;50.836;4.330;2022-10-31T09:20:26;17.10;99.90
23120;DHT22;11729;50.836;4.330;2022-10-31T09:23:00;17.10;99.90
23120;DHT22;11729;50.836;4.330;2022-10-31T09:25:26;17.00;99.90
23120;DHT22;11729;50.836;4.330;2022-10-31T09:27:56;17.00;99.90
23120;DHT22;11729;50.836;4.330;2022-10-31T09:30:22;17.10;99.90
23120;DHT22;11729;50.836;4.330;2022-10-31T09:32:48;16.90;99.90
23120;DHT22;11729;50.836;4.330;2022-10-31T09:35:13;16.90;99.90
23120;DHT22;11729;50.836;4.330;2022-10-31T09:37:39;17.00;99.90
23120;DHT22;11729;50.836;4.330;2022-10-31T09:40:05;17.20;99.90
23120;DHT22;11729;50.836;4.330;2022-10-31T09:45:21;17.40;99.90
23120;DHT22;11729;50.836;4.330;2022-10-31T09:47:58;17.40;99.90
23120;DHT22;11729;50.836;4.330;2022-10-31T09:50:30;17.20;99.90
23120;DHT22;11729;50.836;4.330;2022-10-31T09:53:16;17.30;99.90
23120;DHT22;11729;50.836;4.330;2022-10-31T09:55:44;17.40;99.90
23120;DHT22;11729;50.836;4.330;2022-10-31T09:58:19;17.70;99.90
23120;DHT22;11729;50.836;4.330;2022-10-31T10:00:47;17.90;99.90
23120;DHT22;11729;50.836;4.330;2022-10-31T10:03:39;17.90;99.90
23120;DHT22;11729;50.836;4.330;2022-10-31T10:06:19;18.20;99.90
23120;DHT22;11729;50.836;4.330;2022-10-31T10:08:46;18.00;99.90
23120;DHT22;11729;50.836;4.330;2022-10-31T10:25:38;18.40;99.90
23120;DHT22;11729;50.836;4.330;2022-10-31T10:31:14;18.40;99.90
23120;DHT22;11729;50.836;4.330;2022-10-31T10:36:49;18.30;99.90
23120;DHT22;11729;50.836;4.330;2022-10-31T10:39:41;18.20;99.90
23120;DHT22;11729;50.836;4.330;2022-10-31T10:42:13;17.80;99.90
23120;DHT22;11729;50.836;4.330;2022-10-31T10:44:58;18.00;99.90
23120;DHT22;11729;50.836;4.330;2022-10-31T10:47:48;18.00;99.90
23120;DHT22;11729;50.836;4.330;2022-10-31T10:50:22;18.10;99.90
23120;DHT22;11729;50.836;4.330;2022-10-31T10:53:08;17.90;99.90
23120;DHT22;11729;50.836;4.330;2022-10-31T10:58:41;17.70;99.90
23120;DHT22;11729;50.836;4.330;2022-10-31T11:01:15;17.90;99.90
23120;DHT22;11729;50.836;4.330;2022-10-31T11:03:41;17.90;99.90
23120;DHT22;11729;50.836;4.330;2022-10-31T11:06:22;18.00;99.90
23120;DHT22;11729;50.836;4.330;2022-10-31T11:08:51;17.80;99.90
23120;DHT22;11729;50.836;4.330;2022-10-31T11:13:44;17.90;99.90
23120;DHT22;11729;50.836;4.330;2022-10-31T11:16:28;18.10;99.90
23120;DHT22;11729;50.836;4.330;2022-10-31T11:18:54;18.40;99.90
23120;DHT22;11729;50.836;4.330;2022-10-31T11:21:30;18.30;99.90
23120;DHT22;11729;50.836;4.330;2022-10-31T11:26:37;18.20;99.90
23120;DHT22;11729;50.836;4.330;2022-10-31T11:29:04;18.30;99.90
23120;DHT22;11729;50.836;4.330;2022-10-31T11:31:32;18.30;99.90
23120;DHT22;11729;50.836;4.330;2022-10-31T11:34:12;18.50;99.90
23120;DHT22;11729;50.836;4.330;2022-10-31T11:36:43;18.90;99.90
23120;DHT22;11729;50.836;4.330;2022-10-31T11:39:18;19.40;99.90
23120;DHT22;11729;50.836;4.330;2022-10-31T11:41:45;19.20;99.90
23120;DHT22;11729;50.836;4.330;2022-10-31T11:44:25;19.40;99.90
23120;DHT22;11729;50.836;4.330;2022-10-31T11:47:00;19.30;99.90
23120;DHT22;11729;50.836;4.330;2022-10-31T11:49:33;19.40;99.90
23120;DHT22;11729;50.836;4.330;2022-10-31T11:52:05;19.30;99.90
23120;DHT22;11729;50.836;4.330;2022-10-31T11:54:55;19.70;99.90
23120;DHT22;11729;50.836;4.330;2022-10-31T11:59:53;19.40;99.90
23120;DHT22;11729;50.836;4.330;2022-10-31T12:02:20;19.50;99.90
23120;DHT22;11729;50.836;4.330;2022-10-31T12:04:55;19.40;99.90
23120;DHT22;11729;50.836;4.330;2022-10-31T12:07:23;19.70;99.90
23120;DHT22;11729;50.836;4.330;2022-10-31T12:09:49;19.70;99.90
23120;DHT22;11729;50.836;4.330;2022-10-31T12:15:04;21.00;99.90
23120;DHT22;11729;50.836;4.330;2022-10-31T12:20:44;21.90;99.90
23120;DHT22;11729;50.836;4.330;2022-10-31T12:45:43;26.10;99.90
23120;DHT22;11729;50.836;4.330;2022-10-31T12:53:45;28.30;99.90
23120;DHT22;11729;50.836;4.330;2022-10-31T13:02:27;29.00;98.90
23120;DHT22;11729;50.836;4.330;2022-10-31T13:05:10;27.80;99.90
23120;DHT22;11729;50.836;4.330;2022-10-31T13:07:50;27.50;99.90
23120;DHT22;11729;50.836;4.330;2022-10-31T13:12:44;27.80;99.90
23120;DHT22;11729;50.836;4.330;2022-10-31T13:15:18;28.00;99.90
23120;DHT22;11729;50.836;4.330;2022-10-31T13:17:52;28.00;99.90
23120;DHT22;11729;50.836;4.330;2022-10-31T13:22:48;27.30;99.90
23120;DHT22;11729;50.836;4.330;2022-10-31T13:25:30;27.20;99.90
23120;DHT22;11729;50.836;4.330;2022-10-31T13:28:01;26.60;99.90
23120;DHT22;11729;50.836;4.330;2022-10-31T13:30:31;25.70;99.90
23120;DHT22;11729;50.836;4.330;2022-10-31T13:33:18;25.50;99.90
23120;DHT22;11729;50.836;4.330;2022-10-31T13:36:07;25.20;99.90
23120;DHT22;11729;50.836;4.330;2022-10-31T13:41:46;26.30;99.90
23120;DHT22;11729;50.836;4.330;2022-10-31T13:44:20;27.10;99.90
23120;DHT22;11729;50.836;4.330;2022-10-31T13:46:47;27.00;99.90
23120;DHT22;11729;50.836;4.330;2022-10-31T13:51:50;27.40;99.90
23120;DHT22;11729;50.836;4.330;2022-10-31T13:54:33;26.60;99.90
23120;DHT22;11729;50.836;4.330;2022-10-31T13:56:59;25.10;99.90
23120;DHT22;11729;50.836;4.330;2022-10-31T13:59:27;24.30;99.90
23120;DHT22;11729;50.836;4.330;2022-10-31T14:01:56;23.60;99.90
23120;DHT22;11729;50.836;4.330;2022-10-31T14:04:26;23.50;99.90
23120;DHT22;11729;50.836;4.330;2022-10-31T14:07:08;22.80;99.90
23120;DHT22;11729;50.836;4.330;2022-10-31T14:09:35;22.20;99.90
23120;DHT22;11729;50.836;4.330;2022-10-31T14:12:12;21.90;99.90
23120;DHT22;11729;50.836;4.330;2022-10-31T14:14:44;21.70;99.90
23120;DHT22;11729;50.836;4.330;2022-10-31T14:17:25;21.50;99.90
23120;DHT22;11729;50.836;4.330;2022-10-31T14:20:25;21.40;99.90
23120;DHT22;11729;50.836;4.330;2022-10-31T14:22:56;21.60;99.90
23120;DHT22;11729;50.836;4.330;2022-10-31T14:25:32;21.60;99.90
23120;DHT22;11729;50.836;4.330;2022-10-31T14:27:59;21.50;99.90
23120;DHT22;11729;50.836;4.330;2022-10-31T14:30:27;21.30;99.90
23120;DHT22;11729;50.836;4.330;2022-10-31T14:32:59;21.10;99.90
23120;DHT22;11729;50.836;4.330;2022-10-31T14:35:51;21.00;99.90
23120;DHT22;11729;50.836;4.330;2022-10-31T14:39:01;20.80;99.90
23120;DHT22;11729;50.836;4.330;2022-10-31T14:41:36;20.80;99.90
23120;DHT22;11729;50.836;4.330;2022-10-31T14:52:22;20.80;99.90
23120;DHT22;11729;50.836;4.330;2022-10-31T14:54:58;20.60;99.90
23120;DHT22;11729;50.836;4.330;2022-10-31T14:57:29;20.50;99.90
23120;DHT22;11729;50.836;4.330;2022-10-31T14:59:59;20.60;99.90
23120;DHT22;11729;50.836;4.330;2022-10-31T15:02:31;20.70;99.90
23120;DHT22;11729;50.836;4.330;2022-10-31T15:05:00;20.70;99.90
23120;DHT22;11729;50.836;4.330;2022-10-31T15:07:27;20.70;99.90
23120;DHT22;11729;50.836;4.330;2022-10-31T15:12:26;20.60;99.90
23120;DHT22;11729;50.836;4.330;2022-10-31T15:14:53;20.50;99.90
23120;DHT22;11729;50.836;4.330;2022-10-31T15:17:20;20.50;99.90
23120;DHT22;11729;50.836;4.330;2022-10-31T15:19:46;20.50;99.90
23120;DHT22;11729;50.836;4.330;2022-10-31T15:22:17;20.40;99.90
23120;DHT22;11729;50.836;4.330;2022-10-31T15:24:44;20.30;99.90
23120;DHT22;11729;50.836;4.330;2022-10-31T15:27:15;20.20;99.90
23120;DHT22;11729;50.836;4.330;2022-10-31T15:29:53;20.10;99.90
23120;DHT22;11729;50.836;4.330;2022-10-31T15:32:24;20.10;99.90
23120;DHT22;11729;50.836;4.330;2022-10-31T15:34:51;19.90;99.90
23120;DHT22;11729;50.836;4.330;2022-10-31T15:37:19;19.80;99.90
23120;DHT22;11729;50.836;4.330;2022-10-31T15:39:46;19.70;99.90
23120;DHT22;11729;50.836;4.330;2022-10-31T15:42:25;19.60;99.90
23120;DHT22;11729;50.836;4.330;2022-10-31T15:45:05;19.50;99.90
23120;DHT22;11729;50.836;4.330;2022-10-31T15:47:57;19.50;99.90
23120;DHT22;11729;50.836;4.330;2022-10-31T15:52:57;19.50;99.90
23120;DHT22;11729;50.836;4.330;2022-10-31T15:55:59;19.50;99.90
23120;DHT22;11729;50.836;4.330;2022-10-31T15:58:26;19.40;99.90
23120;DHT22;11729;50.836;4.330;2022-10-31T16:01:01;19.30;99.90
23120;DHT22;11729;50.836;4.330;2022-10-31T16:03:30;19.30;99.90
23120;DHT22;11729;50.836;4.330;2022-10-31T16:06:01;19.40;99.90
23120;DHT22;11729;50.836;4.330;2022-10-31T16:11:02;19.20;99.90
23120;DHT22;11729;50.836;4.330;2022-10-31T16:14:06;19.00;99.90
23120;DHT22;11729;50.836;4.330;2022-10-31T16:16:34;18.90;99.90
23120;DHT22;11729;50.836;4.330;2022-10-31T16:19:11;18.80;99.90
23120;DHT22;11729;50.836;4.330;2022-10-31T16:21:39;18.80;99.90
23120;DHT22;11729;50.836;4.330;2022-10-31T16:26:53;18.80;99.90
23120;DHT22;11729;50.836;4.330;2022-10-31T16:29:34;18.80;99.90
23120;DHT22;11729;50.836;4.330;2022-10-31T16:32:01;18.80;99.90
23120;DHT22;11729;50.836;4.330;2022-10-31T16:34:26;18.80;99.90
23120;DHT22;11729;50.836;4.330;2022-10-31T16:36:52;18.80;99.90
23120;DHT22;11729;50.836;4.330;2022-10-31T16:39:18;18.80;99.90
23120;DHT22;11729;50.836;4.330;2022-10-31T16:41:50;18.80;99.90
23120;DHT22;11729;50.836;4.330;2022-10-31T16:44:18;18.80;99.90
23120;DHT22;11729;50.836;4.330;2022-10-31T16:46:44;18.70;99.90
23120;DHT22;11729;50.836;4.330;2022-10-31T16:49:10;18.70;99.90
23120;DHT22;11729;50.836;4.330;2022-10-31T16:51:35;18.80;99.90
23120;DHT22;11729;50.836;4.330;2022-10-31T16:54:01;18.80;99.90
23120;DHT22;11729;50.836;4.330;2022-10-31T16:56:31;18.90;99.90
23120;DHT22;11729;50.836;4.330;2022-10-31T16:58:58;18.80;99.90
23120;DHT22;11729;50.836;4.330;2022-10-31T17:01:24;18.70;99.90
23120;DHT22;11729;50.836;4.330;2022-10-31T17:03:50;18.60;99.90
23120;DHT22;11729;50.836;4.330;2022-10-31T17:06:16;18.60;99.90
23120;DHT22;11729;50.836;4.330;2022-10-31T17:08:41;18.70;99.90
23120;DHT22;11729;50.836;4.330;2022-10-31T17:11:15;18.70;99.90
23120;DHT22;11729;50.836;4.330;2022-10-31T17:13:41;18.80;99.90
23120;DHT22;11729;50.836;4.330;2022-10-31T17:16:07;18.70;99.90
23120;DHT22;11729;50.836;4.330;2022-10-31T17:18:32;18.70;99.90
23120;DHT22;11729;50.836;4.330;2022-10-31T17:21:00;18.70;99.90
23120;DHT22;11729;50.836;4.330;2022-10-31T17:23:27;18.70;99.90
23120;DHT22;11729;50.836;4.330;2022-10-31T17:25:53;18.80;99.90
23120;DHT22;11729;50.836;4.330;2022-10-31T17:28:19;18.80;99.90
23120;DHT22;11729;50.836;4.330;2022-10-31T17:30:45;18.80;99.90
23120;DHT22;11729;50.836;4.330;2022-10-31T17:33:15;18.80;99.90
23120;DHT22;11729;50.836;4.330;2022-10-31T17:35:42;18.80;99.90
23120;DHT22;11729;50.836;4.330;2022-10-31T17:38:09;18.70;99.90
23120;DHT22;11729;50.836;4.330;2022-10-31T17:40:37;18.70;99.90
23120;DHT22;11729;50.836;4.330;2022-10-31T17:43:03;18.70;99.90
23120;DHT22;11729;50.836;4.330;2022-10-31T17:45:29;18.80;99.90
23120;DHT22;11729;50.836;4.330;2022-10-31T17:47:54;18.80;99.90
23120;DHT22;11729;50.836;4.330;2022-10-31T17:50:22;18.80;99.90
23120;DHT22;11729;50.836;4.330;2022-10-31T17:52:48;18.80;99.90
23120;DHT22;11729;50.836;4.330;2022-10-31T17:55:15;18.80;99.90
23120;DHT22;11729;50.836;4.330;2022-10-31T17:57:41;18.70;99.90
23120;DHT22;11729;50.836;4.330;2022-10-31T18:00:11;18.70;99.90
23120;DHT22;11729;50.836;4.330;2022-10-31T18:02:37;18.70;99.90
23120;DHT22;11729;50.836;4.330;2022-10-31T18:05:04;18.60;99.90
23120;DHT22;11729;50.836;4.330;2022-10-31T18:07:30;18.60;99.90